sensor_id;sensor_type;location;lat;lon;timestamp;P1;durP1;ratioP1;P2;durP2;ratioP2
67108;SDS011;54027;50.786;7.058;2023-04-19T00:00:16;5.00;;;4.03;;
67108;SDS011;54027;50.786;7.058;2023-04-19T00:02:42;7.43;;;4.32;;
67108;SDS011;54027;50.786;7.058;2023-04-19T00:05:07;5.85;;;3.88;;
67108;SDS011;54027;50.786;7.058;2023-04-19T00:07:34;5.15;;;3.58;;
67108;SDS011;54027;50.786;7.058;2023-04-19T00:09:59;5.93;;;3.67;;
67108;SDS011;54027;50.786;7.058;2023-04-19T00:12:24;5.70;;;4.05;;
67108;SDS011;54027;50.786;7.058;2023-04-19T00:14:50;7.25;;;4.28;;
67108;SDS011;54027;50.786;7.058;2023-04-19T00:17:15;4.43;;;3.58;;
67108;SDS011;54027;50.786;7.058;2023-04-19T00:19:41;7.82;;;4.13;;
67108;SDS011;54027;50.786;7.058;2023-04-19T00:22:07;7.82;;;4.30;;
67108;SDS011;54027;50.786;7.058;2023-04-19T00:24:32;5.90;;;4.30;;
67108;SDS011;54027;50.786;7.058;2023-04-19T00:26:57;7.50;;;4.25;;
67108;SDS011;54027;50.786;7.058;2023-04-19T00:29:23;7.43;;;4.72;;
67108;SDS011;54027;50.786;7.058;2023-04-19T00:31:48;5.88;;;3.83;;
67108;SDS011;54027;50.786;7.058;2023-04-19T00:34:14;6.70;;;3.88;;
67108;SDS011;54027;50.786;7.058;2023-04-19T00:36:39;5.22;;;4.15;;
67108;SDS011;54027;50.786;7.058;2023-04-19T00:39:05;6.13;;;3.70;;
67108;SDS011;54027;50.786;7.058;2023-04-19T00:41:30;7.07;;;4.32;;
67108;SDS011;54027;50.786;7.058;2023-04-19T00:43:55;7.03;;;4.32;;
67108;SDS011;54027;50.786;7.058;2023-04-19T00:46:21;7.35;;;4.82;;
67108;SDS011;54027;50.786;7.058;2023-04-19T00:48:47;7.07;;;4.05;;
67108;SDS011;54027;50.786;7.058;2023-04-19T00:51:14;5.60;;;4.18;;
67108;SDS011;54027;50.786;7.058;2023-04-19T00:53:39;6.97;;;4.35;;
67108;SDS011;54027;50.786;7.058;2023-04-19T00:56:05;5.82;;;3.95;;
67108;SDS011;54027;50.786;7.058;2023-04-19T00:58:32;5.65;;;4.05;;
67108;SDS011;54027;50.786;7.058;2023-04-19T01:00:57;5.32;;;4.10;;
67108;SDS011;54027;50.786;7.058;2023-04-19T01:03:24;7.53;;;5.07;;
67108;SDS011;54027;50.786;7.058;2023-04-19T01:05:53;5.75;;;4.40;;
67108;SDS011;54027;50.786;7.058;2023-04-19T01:08:19;6.68;;;4.50;;
67108;SDS011;54027;50.786;7.058;2023-04-19T01:10:45;6.85;;;4.00;;
67108;SDS011;54027;50.786;7.058;2023-04-19T01:13:10;6.40;;;4.75;;
67108;SDS011;54027;50.786;7.058;2023-04-19T01:15:36;7.75;;;4.15;;
67108;SDS011;54027;50.786;7.058;2023-04-19T01:18:01;7.15;;;4.38;;
67108;SDS011;54027;50.786;7.058;2023-04-19T01:20:27;5.55;;;4.60;;
67108;SDS011;54027;50.786;7.058;2023-04-19T01:22:52;7.07;;;5.13;;
67108;SDS011;54027;50.786;7.058;2023-04-19T01:25:17;6.75;;;5.13;;
67108;SDS011;54027;50.786;7.058;2023-04-19T01:27:43;6.47;;;5.00;;
67108;SDS011;54027;50.786;7.058;2023-04-19T01:30:09;6.93;;;4.80;;
67108;SDS011;54027;50.786;7.058;2023-04-19T01:32:34;6.25;;;4.75;;
67108;SDS011;54027;50.786;7.058;2023-04-19T01:35:00;10.90;;;5.68;;
67108;SDS011;54027;50.786;7.058;2023-04-19T01:37:25;9.13;;;4.93;;
67108;SDS011;54027;50.786;7.058;2023-04-19T01:39:51;7.07;;;5.40;;
67108;SDS011;54027;50.786;7.058;2023-04-19T01:42:16;7.47;;;5.40;;
67108;SDS011;54027;50.786;7.058;2023-04-19T01:44:41;7.68;;;5.30;;
67108;SDS011;54027;50.786;7.058;2023-04-19T01:47:07;10.38;;;5.82;;
67108;SDS011;54027;50.786;7.058;2023-04-19T01:49:32;8.45;;;5.30;;
67108;SDS011;54027;50.786;7.058;2023-04-19T01:51:57;7.07;;;5.68;;
67108;SDS011;54027;50.786;7.058;2023-04-19T01:54:23;8.77;;;5.40;;
67108;SDS011;54027;50.786;7.058;2023-04-19T01:56:48;7.60;;;5.30;;
67108;SDS011;54027;50.786;7.058;2023-04-19T01:59:13;7.28;;;5.25;;
67108;SDS011;54027;50.786;7.058;2023-04-19T02:01:39;9.82;;;5.97;;
67108;SDS011;54027;50.786;7.058;2023-04-19T02:04:05;8.48;;;5.70;;
67108;SDS011;54027;50.786;7.058;2023-04-19T02:06:31;6.93;;;5.15;;
67108;SDS011;54027;50.786;7.058;2023-04-19T02:08:56;9.93;;;5.70;;
67108;SDS011;54027;50.786;7.058;2023-04-19T02:11:22;8.88;;;6.43;;
67108;SDS011;54027;50.786;7.058;2023-04-19T02:13:47;7.78;;;5.72;;
67108;SDS011;54027;50.786;7.058;2023-04-19T02:16:13;11.00;;;6.80;;
67108;SDS011;54027;50.786;7.058;2023-04-19T02:18:38;8.50;;;6.35;;
67108;SDS011;54027;50.786;7.058;2023-04-19T02:21:04;9.40;;;6.18;;
67108;SDS011;54027;50.786;7.058;2023-04-19T02:23:31;8.20;;;6.55;;
67108;SDS011;54027;50.786;7.058;2023-04-19T02:25:56;8.35;;;6.30;;
67108;SDS011;54027;50.786;7.058;2023-04-19T02:28:22;10.88;;;6.90;;
67108;SDS011;54027;50.786;7.058;2023-04-19T02:30:47;8.02;;;5.93;;
67108;SDS011;54027;50.786;7.058;2023-04-19T02:33:13;9.35;;;5.53;;
67108;SDS011;54027;50.786;7.058;2023-04-19T02:35:39;9.85;;;6.60;;
67108;SDS011;54027;50.786;7.058;2023-04-19T02:38:04;10.40;;;5.88;;
67108;SDS011;54027;50.786;7.058;2023-04-19T02:40:30;8.50;;;6.20;;
67108;SDS011;54027;50.786;7.058;2023-04-19T02:42:55;11.25;;;7.57;;
67108;SDS011;54027;50.786;7.058;2023-04-19T02:45:21;10.48;;;6.70;;
67108;SDS011;54027;50.786;7.058;2023-04-19T02:47:46;9.52;;;6.72;;
67108;SDS011;54027;50.786;7.058;2023-04-19T02:50:12;10.57;;;6.75;;
67108;SDS011;54027;50.786;7.058;2023-04-19T02:52:38;11.40;;;7.10;;
67108;SDS011;54027;50.786;7.058;2023-04-19T02:55:04;11.23;;;7.28;;
67108;SDS011;54027;50.786;7.058;2023-04-19T02:57:30;9.88;;;6.57;;
67108;SDS011;54027;50.786;7.058;2023-04-19T02:59:55;12.13;;;6.82;;
67108;SDS011;54027;50.786;7.058;2023-04-19T03:02:21;11.35;;;7.93;;
67108;SDS011;54027;50.786;7.058;2023-04-19T03:04:46;9.45;;;7.22;;
67108;SDS011;54027;50.786;7.058;2023-04-19T03:07:12;12.75;;;7.90;;
67108;SDS011;54027;50.786;7.058;2023-04-19T03:09:38;9.25;;;6.97;;
67108;SDS011;54027;50.786;7.058;2023-04-19T03:12:04;10.15;;;7.32;;
67108;SDS011;54027;50.786;7.058;2023-04-19T03:14:31;12.90;;;6.68;;
67108;SDS011;54027;50.786;7.058;2023-04-19T03:16:58;10.82;;;7.30;;
67108;SDS011;54027;50.786;7.058;2023-04-19T03:19:23;11.60;;;7.18;;
67108;SDS011;54027;50.786;7.058;2023-04-19T03:21:48;10.85;;;7.72;;
67108;SDS011;54027;50.786;7.058;2023-04-19T03:24:14;10.50;;;7.82;;
67108;SDS011;54027;50.786;7.058;2023-04-19T03:26:39;9.38;;;7.13;;
67108;SDS011;54027;50.786;7.058;2023-04-19T03:29:05;10.88;;;7.43;;
67108;SDS011;54027;50.786;7.058;2023-04-19T03:31:30;9.32;;;6.68;;
67108;SDS011;54027;50.786;7.058;2023-04-19T03:33:56;10.23;;;7.43;;
67108;SDS011;54027;50.786;7.058;2023-04-19T03:36:21;11.27;;;6.32;;
67108;SDS011;54027;50.786;7.058;2023-04-19T03:38:47;12.07;;;7.95;;
67108;SDS011;54027;50.786;7.058;2023-04-19T03:41:45;9.43;;;7.10;;
67108;SDS011;54027;50.786;7.058;2023-04-19T03:44:04;8.95;;;6.45;;
67108;SDS011;54027;50.786;7.058;2023-04-19T03:46:29;9.98;;;7.10;;
67108;SDS011;54027;50.786;7.058;2023-04-19T03:48:58;11.43;;;7.07;;
67108;SDS011;54027;50.786;7.058;2023-04-19T03:51:23;9.55;;;6.97;;
67108;SDS011;54027;50.786;7.058;2023-04-19T03:53:49;12.80;;;7.90;;
67108;SDS011;54027;50.786;7.058;2023-04-19T03:56:14;10.98;;;6.97;;
67108;SDS011;54027;50.786;7.058;2023-04-19T03:58:39;12.68;;;7.80;;
67108;SDS011;54027;50.786;7.058;2023-04-19T04:01:05;10.20;;;6.70;;
67108;SDS011;54027;50.786;7.058;2023-04-19T04:03:32;9.85;;;6.72;;
67108;SDS011;54027;50.786;7.058;2023-04-19T04:05:58;10.93;;;7.15;;
67108;SDS011;54027;50.786;7.058;2023-04-19T04:08:23;11.85;;;8.10;;
67108;SDS011;54027;50.786;7.058;2023-04-19T04:10:49;11.52;;;7.18;;
67108;SDS011;54027;50.786;7.058;2023-04-19T04:13:14;9.27;;;6.63;;
67108;SDS011;54027;50.786;7.058;2023-04-19T04:15:39;12.82;;;7.57;;
67108;SDS011;54027;50.786;7.058;2023-04-19T04:18:05;12.55;;;7.75;;
67108;SDS011;54027;50.786;7.058;2023-04-19T04:20:30;12.13;;;8.48;;
67108;SDS011;54027;50.786;7.058;2023-04-19T04:22:56;11.63;;;7.07;;
67108;SDS011;54027;50.786;7.058;2023-04-19T04:25:21;10.82;;;7.85;;
67108;SDS011;54027;50.786;7.058;2023-04-19T04:27:49;10.73;;;7.82;;
67108;SDS011;54027;50.786;7.058;2023-04-19T04:30:15;11.10;;;7.25;;
67108;SDS011;54027;50.786;7.058;2023-04-19T04:32:41;11.48;;;7.72;;
67108;SDS011;54027;50.786;7.058;2023-04-19T04:35:07;11.73;;;6.97;;
67108;SDS011;54027;50.786;7.058;2023-04-19T04:37:34;14.05;;;7.90;;
67108;SDS011;54027;50.786;7.058;2023-04-19T04:40:00;11.98;;;8.02;;
67108;SDS011;54027;50.786;7.058;2023-04-19T04:42:28;13.05;;;7.85;;
67108;SDS011;54027;50.786;7.058;2023-04-19T04:44:55;12.63;;;8.77;;
67108;SDS011;54027;50.786;7.058;2023-04-19T04:47:22;12.77;;;7.80;;
67108;SDS011;54027;50.786;7.058;2023-04-19T04:49:48;14.20;;;8.23;;
67108;SDS011;54027;50.786;7.058;2023-04-19T04:52:13;13.57;;;8.32;;
67108;SDS011;54027;50.786;7.058;2023-04-19T04:54:39;13.80;;;8.15;;
67108;SDS011;54027;50.786;7.058;2023-04-19T04:57:05;13.55;;;9.38;;
67108;SDS011;54027;50.786;7.058;2023-04-19T04:59:30;13.77;;;9.07;;
67108;SDS011;54027;50.786;7.058;2023-04-19T05:01:55;14.75;;;8.40;;
67108;SDS011;54027;50.786;7.058;2023-04-19T05:04:21;12.95;;;8.48;;
67108;SDS011;54027;50.786;7.058;2023-04-19T05:06:46;14.85;;;9.40;;
67108;SDS011;54027;50.786;7.058;2023-04-19T05:09:12;15.93;;;9.10;;
67108;SDS011;54027;50.786;7.058;2023-04-19T05:11:37;13.20;;;9.15;;
67108;SDS011;54027;50.786;7.058;2023-04-19T05:14:02;13.02;;;8.30;;
67108;SDS011;54027;50.786;7.058;2023-04-19T05:16:28;18.17;;;9.57;;
67108;SDS011;54027;50.786;7.058;2023-04-19T05:18:54;10.40;;;7.97;;
67108;SDS011;54027;50.786;7.058;2023-04-19T05:21:20;12.50;;;8.32;;
67108;SDS011;54027;50.786;7.058;2023-04-19T05:23:45;14.63;;;8.57;;
67108;SDS011;54027;50.786;7.058;2023-04-19T05:26:11;11.82;;;8.50;;
67108;SDS011;54027;50.786;7.058;2023-04-19T05:28:39;12.48;;;9.02;;
67108;SDS011;54027;50.786;7.058;2023-04-19T05:31:05;11.90;;;8.65;;
67108;SDS011;54027;50.786;7.058;2023-04-19T05:33:31;12.88;;;8.57;;
67108;SDS011;54027;50.786;7.058;2023-04-19T05:35:56;12.88;;;7.88;;
67108;SDS011;54027;50.786;7.058;2023-04-19T05:38:22;12.95;;;8.63;;
67108;SDS011;54027;50.786;7.058;2023-04-19T05:40:47;13.20;;;9.15;;
67108;SDS011;54027;50.786;7.058;2023-04-19T05:43:13;12.95;;;9.50;;
67108;SDS011;54027;50.786;7.058;2023-04-19T05:45:38;17.38;;;9.27;;
67108;SDS011;54027;50.786;7.058;2023-04-19T05:48:03;14.52;;;8.93;;
67108;SDS011;54027;50.786;7.058;2023-04-19T05:50:29;13.88;;;9.10;;
67108;SDS011;54027;50.786;7.058;2023-04-19T05:52:54;13.00;;;8.57;;
67108;SDS011;54027;50.786;7.058;2023-04-19T05:55:20;12.70;;;8.75;;
67108;SDS011;54027;50.786;7.058;2023-04-19T05:57:45;10.55;;;8.52;;
67108;SDS011;54027;50.786;7.058;2023-04-19T06:00:11;10.77;;;7.60;;
67108;SDS011;54027;50.786;7.058;2023-04-19T06:02:37;13.48;;;9.07;;
67108;SDS011;54027;50.786;7.058;2023-04-19T06:05:02;11.73;;;7.93;;
67108;SDS011;54027;50.786;7.058;2023-04-19T06:07:31;11.55;;;8.05;;
67108;SDS011;54027;50.786;7.058;2023-04-19T06:09:56;12.65;;;7.82;;
67108;SDS011;54027;50.786;7.058;2023-04-19T06:12:22;11.02;;;8.10;;
67108;SDS011;54027;50.786;7.058;2023-04-19T06:14:47;12.02;;;8.32;;
67108;SDS011;54027;50.786;7.058;2023-04-19T06:17:13;15.07;;;8.30;;
67108;SDS011;54027;50.786;7.058;2023-04-19T06:19:40;12.02;;;8.27;;
67108;SDS011;54027;50.786;7.058;2023-04-19T06:22:06;11.00;;;8.25;;
67108;SDS011;54027;50.786;7.058;2023-04-19T06:24:31;17.45;;;9.88;;
67108;SDS011;54027;50.786;7.058;2023-04-19T06:26:57;13.55;;;9.07;;
67108;SDS011;54027;50.786;7.058;2023-04-19T06:29:22;12.95;;;8.55;;
67108;SDS011;54027;50.786;7.058;2023-04-19T06:31:48;13.55;;;9.77;;
67108;SDS011;54027;50.786;7.058;2023-04-19T06:34:13;16.85;;;10.85;;
67108;SDS011;54027;50.786;7.058;2023-04-19T06:36:39;15.27;;;9.52;;
67108;SDS011;54027;50.786;7.058;2023-04-19T06:39:05;15.85;;;9.98;;
67108;SDS011;54027;50.786;7.058;2023-04-19T06:41:31;19.25;;;10.38;;
67108;SDS011;54027;50.786;7.058;2023-04-19T06:43:56;14.95;;;9.93;;
67108;SDS011;54027;50.786;7.058;2023-04-19T06:46:21;14.05;;;10.25;;
67108;SDS011;54027;50.786;7.058;2023-04-19T06:48:47;16.83;;;10.13;;
67108;SDS011;54027;50.786;7.058;2023-04-19T06:51:12;17.83;;;9.55;;
67108;SDS011;54027;50.786;7.058;2023-04-19T06:53:37;18.73;;;10.65;;
67108;SDS011;54027;50.786;7.058;2023-04-19T06:56:03;15.98;;;10.63;;
67108;SDS011;54027;50.786;7.058;2023-04-19T06:58:29;16.10;;;10.48;;
67108;SDS011;54027;50.786;7.058;2023-04-19T07:00:56;15.68;;;10.35;;
67108;SDS011;54027;50.786;7.058;2023-04-19T07:03:22;16.10;;;10.23;;
67108;SDS011;54027;50.786;7.058;2023-04-19T07:05:47;16.60;;;11.10;;
67108;SDS011;54027;50.786;7.058;2023-04-19T07:08:13;14.00;;;10.20;;
67108;SDS011;54027;50.786;7.058;2023-04-19T07:10:39;13.88;;;10.40;;
67108;SDS011;54027;50.786;7.058;2023-04-19T07:13:04;16.13;;;11.18;;
67108;SDS011;54027;50.786;7.058;2023-04-19T07:15:29;14.93;;;10.20;;
67108;SDS011;54027;50.786;7.058;2023-04-19T07:17:55;14.30;;;10.23;;
67108;SDS011;54027;50.786;7.058;2023-04-19T07:20:20;14.38;;;10.35;;
67108;SDS011;54027;50.786;7.058;2023-04-19T07:22:46;14.70;;;10.55;;
67108;SDS011;54027;50.786;7.058;2023-04-19T07:25:11;13.95;;;10.63;;
67108;SDS011;54027;50.786;7.058;2023-04-19T07:27:37;16.77;;;10.77;;
67108;SDS011;54027;50.786;7.058;2023-04-19T07:30:02;15.18;;;10.52;;
67108;SDS011;54027;50.786;7.058;2023-04-19T07:32:28;16.08;;;10.27;;
67108;SDS011;54027;50.786;7.058;2023-04-19T07:34:55;13.27;;;9.93;;
67108;SDS011;54027;50.786;7.058;2023-04-19T07:37:20;14.13;;;10.00;;
67108;SDS011;54027;50.786;7.058;2023-04-19T07:39:46;14.27;;;9.95;;
67108;SDS011;54027;50.786;7.058;2023-04-19T07:42:11;14.00;;;9.82;;
67108;SDS011;54027;50.786;7.058;2023-04-19T07:44:36;11.50;;;9.02;;
67108;SDS011;54027;50.786;7.058;2023-04-19T07:47:02;12.05;;;9.18;;
67108;SDS011;54027;50.786;7.058;2023-04-19T07:49:29;11.65;;;8.90;;
67108;SDS011;54027;50.786;7.058;2023-04-19T07:51:58;12.40;;;8.52;;
67108;SDS011;54027;50.786;7.058;2023-04-19T07:54:28;11.98;;;8.80;;
67108;SDS011;54027;50.786;7.058;2023-04-19T07:56:55;13.00;;;8.93;;
67108;SDS011;54027;50.786;7.058;2023-04-19T07:59:22;13.00;;;8.15;;
67108;SDS011;54027;50.786;7.058;2023-04-19T08:01:48;11.15;;;8.38;;
67108;SDS011;54027;50.786;7.058;2023-04-19T08:04:13;10.63;;;8.20;;
67108;SDS011;54027;50.786;7.058;2023-04-19T08:06:39;11.73;;;8.85;;
67108;SDS011;54027;50.786;7.058;2023-04-19T08:09:05;11.40;;;8.27;;
67108;SDS011;54027;50.786;7.058;2023-04-19T08:11:30;11.68;;;8.48;;
67108;SDS011;54027;50.786;7.058;2023-04-19T08:13:56;10.57;;;7.70;;
67108;SDS011;54027;50.786;7.058;2023-04-19T08:16:21;13.55;;;8.10;;
67108;SDS011;54027;50.786;7.058;2023-04-19T08:18:47;10.68;;;7.85;;
67108;SDS011;54027;50.786;7.058;2023-04-19T08:21:15;10.15;;;6.68;;
67108;SDS011;54027;50.786;7.058;2023-04-19T08:23:41;10.07;;;7.03;;
67108;SDS011;54027;50.786;7.058;2023-04-19T08:26:06;9.20;;;6.95;;
67108;SDS011;54027;50.786;7.058;2023-04-19T08:28:31;10.65;;;6.85;;
67108;SDS011;54027;50.786;7.058;2023-04-19T08:30:57;8.50;;;5.68;;
67108;SDS011;54027;50.786;7.058;2023-04-19T08:33:23;9.27;;;5.38;;
67108;SDS011;54027;50.786;7.058;2023-04-19T08:35:48;7.30;;;5.35;;
67108;SDS011;54027;50.786;7.058;2023-04-19T08:38:14;8.15;;;6.18;;
67108;SDS011;54027;50.786;7.058;2023-04-19T08:40:40;7.15;;;5.53;;
67108;SDS011;54027;50.786;7.058;2023-04-19T08:43:14;8.13;;;5.72;;
67108;SDS011;54027;50.786;7.058;2023-04-19T08:45:42;9.38;;;5.40;;
67108;SDS011;54027;50.786;7.058;2023-04-19T08:48:10;7.72;;;5.95;;
67108;SDS011;54027;50.786;7.058;2023-04-19T08:50:37;10.18;;;5.55;;
67108;SDS011;54027;50.786;7.058;2023-04-19T08:53:05;10.52;;;6.00;;
67108;SDS011;54027;50.786;7.058;2023-04-19T08:55:32;13.40;;;6.13;;
67108;SDS011;54027;50.786;7.058;2023-04-19T08:57:58;8.27;;;5.47;;
67108;SDS011;54027;50.786;7.058;2023-04-19T09:00:23;6.97;;;5.35;;
67108;SDS011;54027;50.786;7.058;2023-04-19T09:02:50;8.88;;;5.53;;
67108;SDS011;54027;50.786;7.058;2023-04-19T09:05:16;7.68;;;5.72;;
67108;SDS011;54027;50.786;7.058;2023-04-19T09:07:45;9.13;;;5.93;;
67108;SDS011;54027;50.786;7.058;2023-04-19T09:10:12;8.02;;;4.60;;
67108;SDS011;54027;50.786;7.058;2023-04-19T09:12:42;7.60;;;5.22;;
67108;SDS011;54027;50.786;7.058;2023-04-19T09:15:08;7.70;;;4.72;;
67108;SDS011;54027;50.786;7.058;2023-04-19T09:17:34;6.28;;;4.60;;
67108;SDS011;54027;50.786;7.058;2023-04-19T09:20:00;7.10;;;4.90;;
67108;SDS011;54027;50.786;7.058;2023-04-19T09:22:27;6.60;;;4.72;;
67108;SDS011;54027;50.786;7.058;2023-04-19T09:24:52;6.97;;;4.97;;
67108;SDS011;54027;50.786;7.058;2023-04-19T09:27:25;6.15;;;4.65;;
67108;SDS011;54027;50.786;7.058;2023-04-19T09:29:52;9.80;;;4.68;;
67108;SDS011;54027;50.786;7.058;2023-04-19T09:32:21;8.63;;;4.53;;
67108;SDS011;54027;50.786;7.058;2023-04-19T09:34:50;5.97;;;4.60;;
67108;SDS011;54027;50.786;7.058;2023-04-19T09:37:23;7.93;;;4.85;;
67108;SDS011;54027;50.786;7.058;2023-04-19T09:39:50;6.55;;;5.28;;
67108;SDS011;54027;50.786;7.058;2023-04-19T09:42:16;7.13;;;4.32;;
67108;SDS011;54027;50.786;7.058;2023-04-19T09:44:58;8.45;;;4.13;;
67108;SDS011;54027;50.786;7.058;2023-04-19T09:47:24;7.22;;;3.90;;
67108;SDS011;54027;50.786;7.058;2023-04-19T09:50:04;6.47;;;4.20;;
67108;SDS011;54027;50.786;7.058;2023-04-19T09:52:31;6.82;;;4.18;;
67108;SDS011;54027;50.786;7.058;2023-04-19T09:54:59;8.75;;;4.15;;
67108;SDS011;54027;50.786;7.058;2023-04-19T09:57:27;6.00;;;3.85;;
67108;SDS011;54027;50.786;7.058;2023-04-19T09:59:53;9.98;;;4.22;;
67108;SDS011;54027;50.786;7.058;2023-04-19T10:02:19;5.40;;;3.80;;
67108;SDS011;54027;50.786;7.058;2023-04-19T10:04:46;4.38;;;3.50;;
67108;SDS011;54027;50.786;7.058;2023-04-19T10:07:11;9.00;;;3.72;;
67108;SDS011;54027;50.786;7.058;2023-04-19T10:09:44;5.97;;;4.32;;
67108;SDS011;54027;50.786;7.058;2023-04-19T10:12:14;7.72;;;4.18;;
67108;SDS011;54027;50.786;7.058;2023-04-19T10:14:40;4.45;;;3.60;;
67108;SDS011;54027;50.786;7.058;2023-04-19T10:17:07;6.25;;;2.90;;
67108;SDS011;54027;50.786;7.058;2023-04-19T10:19:32;5.13;;;3.28;;
67108;SDS011;54027;50.786;7.058;2023-04-19T10:22:00;6.05;;;3.53;;
67108;SDS011;54027;50.786;7.058;2023-04-19T10:24:29;5.15;;;3.05;;
67108;SDS011;54027;50.786;7.058;2023-04-19T10:27:11;4.70;;;2.50;;
67108;SDS011;54027;50.786;7.058;2023-04-19T10:32:29;5.75;;;3.22;;
67108;SDS011;54027;50.786;7.058;2023-04-19T10:35:06;5.15;;;3.15;;
67108;SDS011;54027;50.786;7.058;2023-04-19T10:37:32;5.68;;;3.67;;
67108;SDS011;54027;50.786;7.058;2023-04-19T10:39:58;6.65;;;3.60;;
67108;SDS011;54027;50.786;7.058;2023-04-19T10:42:24;5.78;;;3.90;;
67108;SDS011;54027;50.786;7.058;2023-04-19T10:47:52;6.97;;;4.00;;
67108;SDS011;54027;50.786;7.058;2023-04-19T10:50:17;6.93;;;3.50;;
67108;SDS011;54027;50.786;7.058;2023-04-19T10:52:43;5.18;;;3.72;;
67108;SDS011;54027;50.786;7.058;2023-04-19T10:55:08;8.32;;;3.22;;
67108;SDS011;54027;50.786;7.058;2023-04-19T11:00:27;7.00;;;3.58;;
67108;SDS011;54027;50.786;7.058;2023-04-19T11:02:55;7.10;;;3.83;;
67108;SDS011;54027;50.786;7.058;2023-04-19T11:05:20;8.27;;;4.13;;
67108;SDS011;54027;50.786;7.058;2023-04-19T11:07:46;7.22;;;4.32;;
67108;SDS011;54027;50.786;7.058;2023-04-19T11:10:11;6.10;;;4.32;;
67108;SDS011;54027;50.786;7.058;2023-04-19T11:12:40;8.77;;;4.60;;
67108;SDS011;54027;50.786;7.058;2023-04-19T11:15:07;5.28;;;3.90;;
67108;SDS011;54027;50.786;7.058;2023-04-19T11:17:33;5.18;;;3.50;;
67108;SDS011;54027;50.786;7.058;2023-04-19T11:20:05;6.90;;;3.80;;
67108;SDS011;54027;50.786;7.058;2023-04-19T11:22:39;7.45;;;4.25;;
67108;SDS011;54027;50.786;7.058;2023-04-19T11:25:12;5.80;;;4.22;;
67108;SDS011;54027;50.786;7.058;2023-04-19T11:27:43;7.47;;;3.95;;
67108;SDS011;54027;50.786;7.058;2023-04-19T11:30:14;5.63;;;3.92;;
67108;SDS011;54027;50.786;7.058;2023-04-19T11:33:00;7.75;;;4.13;;
67108;SDS011;54027;50.786;7.058;2023-04-19T11:35:26;5.40;;;3.53;;
67108;SDS011;54027;50.786;7.058;2023-04-19T11:37:54;6.20;;;3.72;;
67108;SDS011;54027;50.786;7.058;2023-04-19T11:40:21;4.82;;;3.83;;
67108;SDS011;54027;50.786;7.058;2023-04-19T11:42:54;6.50;;;3.80;;
67108;SDS011;54027;50.786;7.058;2023-04-19T11:45:28;8.85;;;3.83;;
67108;SDS011;54027;50.786;7.058;2023-04-19T11:47:58;4.50;;;3.00;;
67108;SDS011;54027;50.786;7.058;2023-04-19T11:53:19;5.05;;;3.67;;
67108;SDS011;54027;50.786;7.058;2023-04-19T11:55:49;5.03;;;2.78;;
67108;SDS011;54027;50.786;7.058;2023-04-19T11:58:26;4.32;;;3.20;;
67108;SDS011;54027;50.786;7.058;2023-04-19T12:00:53;5.25;;;2.97;;
67108;SDS011;54027;50.786;7.058;2023-04-19T12:03:20;4.75;;;2.38;;
67108;SDS011;54027;50.786;7.058;2023-04-19T12:10:56;7.38;;;2.70;;
67108;SDS011;54027;50.786;7.058;2023-04-19T12:13:23;4.80;;;2.20;;
67108;SDS011;54027;50.786;7.058;2023-04-19T12:15:50;3.65;;;2.28;;
67108;SDS011;54027;50.786;7.058;2023-04-19T12:18:16;5.25;;;2.20;;
67108;SDS011;54027;50.786;7.058;2023-04-19T12:20:45;3.58;;;2.47;;
67108;SDS011;54027;50.786;7.058;2023-04-19T12:23:16;4.00;;;2.55;;
67108;SDS011;54027;50.786;7.058;2023-04-19T12:25:44;4.35;;;2.30;;
67108;SDS011;54027;50.786;7.058;2023-04-19T12:28:12;3.40;;;2.65;;
67108;SDS011;54027;50.786;7.058;2023-04-19T12:30:38;3.63;;;2.50;;
67108;SDS011;54027;50.786;7.058;2023-04-19T12:33:05;3.33;;;1.80;;
67108;SDS011;54027;50.786;7.058;2023-04-19T12:35:31;3.85;;;1.70;;
67108;SDS011;54027;50.786;7.058;2023-04-19T12:37:56;2.20;;;1.70;;
67108;SDS011;54027;50.786;7.058;2023-04-19T12:40:23;3.47;;;1.40;;
67108;SDS011;54027;50.786;7.058;2023-04-19T12:42:50;3.40;;;1.65;;
67108;SDS011;54027;50.786;7.058;2023-04-19T12:45:16;5.60;;;1.60;;
67108;SDS011;54027;50.786;7.058;2023-04-19T12:47:43;5.35;;;1.88;;
67108;SDS011;54027;50.786;7.058;2023-04-19T12:50:11;4.18;;;1.95;;
67108;SDS011;54027;50.786;7.058;2023-04-19T12:52:36;3.72;;;1.80;;
67108;SDS011;54027;50.786;7.058;2023-04-19T12:55:02;2.25;;;1.50;;
67108;SDS011;54027;50.786;7.058;2023-04-19T12:57:28;4.95;;;1.70;;
67108;SDS011;54027;50.786;7.058;2023-04-19T12:59:54;2.80;;;1.20;;
67108;SDS011;54027;50.786;7.058;2023-04-19T13:02:19;3.80;;;2.00;;
67108;SDS011;54027;50.786;7.058;2023-04-19T13:04:45;1.75;;;1.33;;
67108;SDS011;54027;50.786;7.058;2023-04-19T13:07:10;3.38;;;1.88;;
67108;SDS011;54027;50.786;7.058;2023-04-19T13:09:36;4.05;;;1.92;;
67108;SDS011;54027;50.786;7.058;2023-04-19T13:12:02;3.45;;;1.63;;
67108;SDS011;54027;50.786;7.058;2023-04-19T13:14:31;5.05;;;1.95;;
67108;SDS011;54027;50.786;7.058;2023-04-19T13:16:56;4.30;;;1.70;;
67108;SDS011;54027;50.786;7.058;2023-04-19T13:19:22;3.47;;;1.70;;
67108;SDS011;54027;50.786;7.058;2023-04-19T13:21:47;3.05;;;1.63;;
67108;SDS011;54027;50.786;7.058;2023-04-19T13:24:13;4.32;;;2.15;;
67108;SDS011;54027;50.786;7.058;2023-04-19T13:26:38;2.35;;;1.55;;
67108;SDS011;54027;50.786;7.058;2023-04-19T13:29:03;5.07;;;1.58;;
67108;SDS011;54027;50.786;7.058;2023-04-19T13:31:29;4.90;;;1.50;;
67108;SDS011;54027;50.786;7.058;2023-04-19T13:33:55;3.55;;;1.50;;
67108;SDS011;54027;50.786;7.058;2023-04-19T13:36:21;3.83;;;1.70;;
67108;SDS011;54027;50.786;7.058;2023-04-19T13:38:47;2.35;;;1.40;;
67108;SDS011;54027;50.786;7.058;2023-04-19T13:41:12;1.90;;;1.40;;
67108;SDS011;54027;50.786;7.058;2023-04-19T13:43:38;2.53;;;1.75;;
67108;SDS011;54027;50.786;7.058;2023-04-19T13:46:04;4.40;;;1.50;;
67108;SDS011;54027;50.786;7.058;2023-04-19T13:48:29;4.65;;;1.75;;
67108;SDS011;54027;50.786;7.058;2023-04-19T13:50:55;3.25;;;1.95;;
67108;SDS011;54027;50.786;7.058;2023-04-19T13:53:22;4.93;;;2.42;;
67108;SDS011;54027;50.786;7.058;2023-04-19T13:55:48;2.53;;;2.00;;
67108;SDS011;54027;50.786;7.058;2023-04-19T13:58:14;8.25;;;2.55;;
67108;SDS011;54027;50.786;7.058;2023-04-19T14:00:39;5.18;;;2.00;;
67108;SDS011;54027;50.786;7.058;2023-04-19T14:03:05;4.15;;;1.70;;
67108;SDS011;54027;50.786;7.058;2023-04-19T14:05:30;2.78;;;2.08;;
67108;SDS011;54027;50.786;7.058;2023-04-19T14:07:55;4.43;;;2.30;;
67108;SDS011;54027;50.786;7.058;2023-04-19T14:10:21;3.13;;;2.00;;
67108;SDS011;54027;50.786;7.058;2023-04-19T14:12:46;4.25;;;2.00;;
67108;SDS011;54027;50.786;7.058;2023-04-19T14:15:13;4.78;;;2.15;;
67108;SDS011;54027;50.786;7.058;2023-04-19T14:17:38;7.60;;;2.10;;
67108;SDS011;54027;50.786;7.058;2023-04-19T14:20:04;6.32;;;2.00;;
67108;SDS011;54027;50.786;7.058;2023-04-19T14:22:30;5.05;;;2.40;;
67108;SDS011;54027;50.786;7.058;2023-04-19T14:24:56;4.05;;;2.30;;
67108;SDS011;54027;50.786;7.058;2023-04-19T14:27:21;7.65;;;2.92;;
67108;SDS011;54027;50.786;7.058;2023-04-19T14:29:47;4.93;;;2.60;;
67108;SDS011;54027;50.786;7.058;2023-04-19T14:32:13;5.03;;;2.42;;
67108;SDS011;54027;50.786;7.058;2023-04-19T14:34:39;5.50;;;2.30;;
67108;SDS011;54027;50.786;7.058;2023-04-19T14:37:05;12.23;;;2.42;;
67108;SDS011;54027;50.786;7.058;2023-04-19T14:39:30;3.67;;;2.28;;
67108;SDS011;54027;50.786;7.058;2023-04-19T14:41:55;3.85;;;2.03;;
67108;SDS011;54027;50.786;7.058;2023-04-19T14:44:21;8.05;;;2.88;;
67108;SDS011;54027;50.786;7.058;2023-04-19T14:46:47;7.72;;;2.40;;
67108;SDS011;54027;50.786;7.058;2023-04-19T14:49:12;4.57;;;2.20;;
67108;SDS011;54027;50.786;7.058;2023-04-19T14:51:38;4.22;;;2.30;;